sensor_id;sensor_type;location;lat;lon;timestamp;P1;durP1;ratioP1;P2;durP2;ratioP2
13114;SDS011;6623;52.120;8.660;2023-03-14T00:02:19;2.73;;;1.20;;
13114;SDS011;6623;52.120;8.660;2023-03-14T00:04:45;5.57;;;1.30;;
13114;SDS011;6623;52.120;8.660;2023-03-14T00:07:11;2.70;;;1.30;;
13114;SDS011;6623;52.120;8.660;2023-03-14T00:09:37;4.07;;;1.20;;
13114;SDS011;6623;52.120;8.660;2023-03-14T00:12:03;3.93;;;1.20;;
13114;SDS011;6623;52.120;8.660;2023-03-14T00:14:32;2.37;;;1.20;;
13114;SDS011;6623;52.120;8.660;2023-03-14T00:16:57;3.70;;;1.20;;
13114;SDS011;6623;52.120;8.660;2023-03-14T00:19:23;2.57;;;1.20;;
13114;SDS011;6623;52.120;8.660;2023-03-14T00:21:48;4.20;;;1.30;;
13114;SDS011;6623;52.120;8.660;2023-03-14T00:24:14;3.40;;;1.10;;
13114;SDS011;6623;52.120;8.660;2023-03-14T00:26:39;2.73;;;1.10;;
13114;SDS011;6623;52.120;8.660;2023-03-14T00:29:05;2.67;;;1.13;;
13114;SDS011;6623;52.120;8.660;2023-03-14T00:31:31;1.70;;;1.17;;
13114;SDS011;6623;52.120;8.660;2023-03-14T00:33:56;4.37;;;1.17;;
13114;SDS011;6623;52.120;8.660;2023-03-14T00:36:22;3.97;;;1.10;;
13114;SDS011;6623;52.120;8.660;2023-03-14T00:38:49;5.47;;;1.20;;
13114;SDS011;6623;52.120;8.660;2023-03-14T00:41:16;3.67;;;1.30;;
13114;SDS011;6623;52.120;8.660;2023-03-14T00:43:43;4.93;;;1.50;;
13114;SDS011;6623;52.120;8.660;2023-03-14T00:46:10;4.10;;;1.20;;
13114;SDS011;6623;52.120;8.660;2023-03-14T00:48:36;4.97;;;1.23;;
13114;SDS011;6623;52.120;8.660;2023-03-14T00:51:02;4.90;;;1.37;;
13114;SDS011;6623;52.120;8.660;2023-03-14T00:53:29;5.67;;;1.40;;
13114;SDS011;6623;52.120;8.660;2023-03-14T00:55:55;3.17;;;1.10;;
13114;SDS011;6623;52.120;8.660;2023-03-14T00:58:21;5.10;;;1.50;;
13114;SDS011;6623;52.120;8.660;2023-03-14T01:00:47;2.53;;;1.00;;
13114;SDS011;6623;52.120;8.660;2023-03-14T01:03:13;3.93;;;1.23;;
13114;SDS011;6623;52.120;8.660;2023-03-14T01:05:39;3.73;;;1.30;;
13114;SDS011;6623;52.120;8.660;2023-03-14T01:08:05;3.80;;;1.40;;
13114;SDS011;6623;52.120;8.660;2023-03-14T01:10:32;3.57;;;1.20;;
13114;SDS011;6623;52.120;8.660;2023-03-14T01:12:57;1.83;;;1.13;;
13114;SDS011;6623;52.120;8.660;2023-03-14T01:15:23;4.47;;;1.33;;
13114;SDS011;6623;52.120;8.660;2023-03-14T01:17:52;3.63;;;1.20;;
13114;SDS011;6623;52.120;8.660;2023-03-14T01:20:17;3.47;;;1.20;;
13114;SDS011;6623;52.120;8.660;2023-03-14T01:22:43;2.40;;;1.23;;
13114;SDS011;6623;52.120;8.660;2023-03-14T01:25:10;5.77;;;1.40;;
13114;SDS011;6623;52.120;8.660;2023-03-14T01:27:38;3.17;;;1.00;;
13114;SDS011;6623;52.120;8.660;2023-03-14T01:30:04;4.73;;;1.37;;
13114;SDS011;6623;52.120;8.660;2023-03-14T01:32:30;3.00;;;1.33;;
13114;SDS011;6623;52.120;8.660;2023-03-14T01:34:56;3.87;;;1.23;;
13114;SDS011;6623;52.120;8.660;2023-03-14T01:37:22;4.70;;;1.07;;
13114;SDS011;6623;52.120;8.660;2023-03-14T01:39:47;3.17;;;1.33;;
13114;SDS011;6623;52.120;8.660;2023-03-14T01:42:16;4.07;;;1.33;;
13114;SDS011;6623;52.120;8.660;2023-03-14T01:44:55;3.63;;;1.20;;
13114;SDS011;6623;52.120;8.660;2023-03-14T01:47:23;4.13;;;1.60;;
13114;SDS011;6623;52.120;8.660;2023-03-14T01:49:50;4.40;;;1.30;;
13114;SDS011;6623;52.120;8.660;2023-03-14T01:52:28;5.73;;;1.50;;
13114;SDS011;6623;52.120;8.660;2023-03-14T01:54:59;4.33;;;1.30;;
13114;SDS011;6623;52.120;8.660;2023-03-14T01:57:36;6.10;;;1.30;;
13114;SDS011;6623;52.120;8.660;2023-03-14T02:00:16;5.33;;;1.17;;
13114;SDS011;6623;52.120;8.660;2023-03-14T02:02:45;3.80;;;1.20;;
13114;SDS011;6623;52.120;8.660;2023-03-14T02:05:17;4.30;;;1.30;;
13114;SDS011;6623;52.120;8.660;2023-03-14T02:07:47;5.37;;;1.50;;
13114;SDS011;6623;52.120;8.660;2023-03-14T02:10:16;4.13;;;1.37;;
13114;SDS011;6623;52.120;8.660;2023-03-14T02:12:45;6.23;;;1.30;;
13114;SDS011;6623;52.120;8.660;2023-03-14T02:15:12;3.13;;;1.00;;
13114;SDS011;6623;52.120;8.660;2023-03-14T02:17:37;3.07;;;1.20;;
13114;SDS011;6623;52.120;8.660;2023-03-14T02:20:10;5.57;;;1.30;;
13114;SDS011;6623;52.120;8.660;2023-03-14T02:22:44;5.33;;;1.13;;
13114;SDS011;6623;52.120;8.660;2023-03-14T02:25:13;4.40;;;1.30;;
13114;SDS011;6623;52.120;8.660;2023-03-14T02:27:53;3.57;;;1.23;;
13114;SDS011;6623;52.120;8.660;2023-03-14T02:30:20;3.57;;;1.37;;
13114;SDS011;6623;52.120;8.660;2023-03-14T02:32:48;3.07;;;1.30;;
13114;SDS011;6623;52.120;8.660;2023-03-14T02:35:39;4.17;;;1.30;;
13114;SDS011;6623;52.120;8.660;2023-03-14T02:38:31;3.90;;;1.27;;
13114;SDS011;6623;52.120;8.660;2023-03-14T02:41:05;4.47;;;1.30;;
13114;SDS011;6623;52.120;8.660;2023-03-14T02:43:31;2.63;;;0.83;;
13114;SDS011;6623;52.120;8.660;2023-03-14T02:45:57;2.17;;;0.70;;
13114;SDS011;6623;52.120;8.660;2023-03-14T02:48:24;4.00;;;1.17;;
13114;SDS011;6623;52.120;8.660;2023-03-14T02:50:52;2.47;;;0.67;;
13114;SDS011;6623;52.120;8.660;2023-03-14T02:53:30;5.27;;;0.70;;
13114;SDS011;6623;52.120;8.660;2023-03-14T02:55:58;3.23;;;0.90;;
13114;SDS011;6623;52.120;8.660;2023-03-14T02:58:24;4.20;;;0.83;;
13114;SDS011;6623;52.120;8.660;2023-03-14T03:00:50;3.33;;;0.80;;
13114;SDS011;6623;52.120;8.660;2023-03-14T03:03:16;1.73;;;0.43;;
13114;SDS011;6623;52.120;8.660;2023-03-14T03:05:42;1.17;;;0.50;;
13114;SDS011;6623;52.120;8.660;2023-03-14T03:08:08;1.93;;;0.60;;
13114;SDS011;6623;52.120;8.660;2023-03-14T03:10:34;1.20;;;0.60;;
13114;SDS011;6623;52.120;8.660;2023-03-14T03:13:00;2.43;;;0.63;;
13114;SDS011;6623;52.120;8.660;2023-03-14T03:15:26;1.30;;;0.60;;
13114;SDS011;6623;52.120;8.660;2023-03-14T03:17:58;2.33;;;0.80;;
13114;SDS011;6623;52.120;8.660;2023-03-14T03:20:23;2.63;;;0.87;;
13114;SDS011;6623;52.120;8.660;2023-03-14T03:22:49;2.77;;;0.90;;
13114;SDS011;6623;52.120;8.660;2023-03-14T03:25:15;5.03;;;1.00;;
13114;SDS011;6623;52.120;8.660;2023-03-14T03:27:41;3.40;;;0.70;;
13114;SDS011;6623;52.120;8.660;2023-03-14T03:30:06;2.47;;;0.80;;
13114;SDS011;6623;52.120;8.660;2023-03-14T03:32:33;3.17;;;0.70;;
13114;SDS011;6623;52.120;8.660;2023-03-14T03:34:58;5.47;;;1.13;;
13114;SDS011;6623;52.120;8.660;2023-03-14T03:37:24;4.70;;;0.80;;
13114;SDS011;6623;52.120;8.660;2023-03-14T03:39:50;2.13;;;0.80;;
13114;SDS011;6623;52.120;8.660;2023-03-14T03:42:16;2.97;;;0.97;;
13114;SDS011;6623;52.120;8.660;2023-03-14T03:44:42;2.47;;;0.90;;
13114;SDS011;6623;52.120;8.660;2023-03-14T03:47:08;2.10;;;1.10;;
13114;SDS011;6623;52.120;8.660;2023-03-14T03:49:34;3.20;;;0.77;;
13114;SDS011;6623;52.120;8.660;2023-03-14T03:51:59;2.90;;;0.90;;
13114;SDS011;6623;52.120;8.660;2023-03-14T03:54:25;3.13;;;0.73;;
13114;SDS011;6623;52.120;8.660;2023-03-14T03:56:51;3.30;;;1.00;;
13114;SDS011;6623;52.120;8.660;2023-03-14T03:59:20;3.67;;;0.80;;
13114;SDS011;6623;52.120;8.660;2023-03-14T04:01:46;2.13;;;0.87;;
13114;SDS011;6623;52.120;8.660;2023-03-14T04:04:12;3.37;;;0.90;;
13114;SDS011;6623;52.120;8.660;2023-03-14T04:06:38;3.43;;;0.80;;
13114;SDS011;6623;52.120;8.660;2023-03-14T04:09:05;2.00;;;0.90;;
13114;SDS011;6623;52.120;8.660;2023-03-14T04:11:30;3.90;;;1.20;;
13114;SDS011;6623;52.120;8.660;2023-03-14T04:13:56;2.40;;;1.00;;
13114;SDS011;6623;52.120;8.660;2023-03-14T04:16:25;4.33;;;0.73;;
13114;SDS011;6623;52.120;8.660;2023-03-14T04:18:51;2.30;;;0.90;;
13114;SDS011;6623;52.120;8.660;2023-03-14T04:21:16;3.53;;;1.10;;
13114;SDS011;6623;52.120;8.660;2023-03-14T04:23:42;3.07;;;1.00;;
13114;SDS011;6623;52.120;8.660;2023-03-14T04:26:08;2.57;;;1.00;;
13114;SDS011;6623;52.120;8.660;2023-03-14T04:28:34;3.03;;;1.23;;
13114;SDS011;6623;52.120;8.660;2023-03-14T04:31:08;2.43;;;1.00;;
13114;SDS011;6623;52.120;8.660;2023-03-14T04:33:35;5.47;;;1.30;;
13114;SDS011;6623;52.120;8.660;2023-03-14T04:36:02;3.30;;;1.30;;
13114;SDS011;6623;52.120;8.660;2023-03-14T04:38:28;3.23;;;1.37;;
13114;SDS011;6623;52.120;8.660;2023-03-14T04:40:54;2.60;;;1.23;;
13114;SDS011;6623;52.120;8.660;2023-03-14T04:43:19;3.53;;;1.60;;
13114;SDS011;6623;52.120;8.660;2023-03-14T04:45:45;7.20;;;1.60;;
13114;SDS011;6623;52.120;8.660;2023-03-14T04:48:10;5.23;;;1.20;;
13114;SDS011;6623;52.120;8.660;2023-03-14T04:50:37;5.40;;;1.50;;
13114;SDS011;6623;52.120;8.660;2023-03-14T04:53:03;8.23;;;1.60;;
13114;SDS011;6623;52.120;8.660;2023-03-14T04:55:30;5.30;;;1.33;;
13114;SDS011;6623;52.120;8.660;2023-03-14T04:57:57;5.13;;;1.70;;
13114;SDS011;6623;52.120;8.660;2023-03-14T05:00:23;6.67;;;2.00;;
13114;SDS011;6623;52.120;8.660;2023-03-14T05:02:48;6.43;;;2.10;;
13114;SDS011;6623;52.120;8.660;2023-03-14T05:05:14;6.00;;;1.87;;
13114;SDS011;6623;52.120;8.660;2023-03-14T05:07:39;5.47;;;1.57;;
13114;SDS011;6623;52.120;8.660;2023-03-14T05:10:05;5.37;;;1.60;;
13114;SDS011;6623;52.120;8.660;2023-03-14T05:12:31;5.60;;;1.63;;
13114;SDS011;6623;52.120;8.660;2023-03-14T05:14:56;5.83;;;1.70;;
13114;SDS011;6623;52.120;8.660;2023-03-14T05:17:22;4.60;;;1.40;;
13114;SDS011;6623;52.120;8.660;2023-03-14T05:19:47;5.43;;;1.50;;
13114;SDS011;6623;52.120;8.660;2023-03-14T05:22:13;5.20;;;1.60;;
13114;SDS011;6623;52.120;8.660;2023-03-14T05:24:38;5.07;;;1.50;;
13114;SDS011;6623;52.120;8.660;2023-03-14T05:27:04;4.97;;;1.60;;
13114;SDS011;6623;52.120;8.660;2023-03-14T05:29:31;3.93;;;1.33;;
13114;SDS011;6623;52.120;8.660;2023-03-14T05:31:56;3.03;;;1.30;;
13114;SDS011;6623;52.120;8.660;2023-03-14T05:34:22;5.60;;;1.33;;
13114;SDS011;6623;52.120;8.660;2023-03-14T05:36:47;2.80;;;1.10;;
13114;SDS011;6623;52.120;8.660;2023-03-14T05:39:13;4.33;;;1.33;;
13114;SDS011;6623;52.120;8.660;2023-03-14T05:41:38;6.27;;;1.63;;
13114;SDS011;6623;52.120;8.660;2023-03-14T05:44:04;5.73;;;1.20;;
13114;SDS011;6623;52.120;8.660;2023-03-14T05:46:29;5.60;;;1.40;;
13114;SDS011;6623;52.120;8.660;2023-03-14T05:48:55;8.40;;;1.67;;
13114;SDS011;6623;52.120;8.660;2023-03-14T05:51:22;4.47;;;1.20;;
13114;SDS011;6623;52.120;8.660;2023-03-14T05:53:47;5.67;;;1.10;;
13114;SDS011;6623;52.120;8.660;2023-03-14T05:56:13;3.10;;;1.20;;
13114;SDS011;6623;52.120;8.660;2023-03-14T05:58:39;5.03;;;0.90;;
13114;SDS011;6623;52.120;8.660;2023-03-14T06:01:04;5.20;;;1.00;;
13114;SDS011;6623;52.120;8.660;2023-03-14T06:03:31;2.87;;;0.93;;
13114;SDS011;6623;52.120;8.660;2023-03-14T06:05:56;3.13;;;1.00;;
13114;SDS011;6623;52.120;8.660;2023-03-14T06:08:22;1.63;;;0.80;;
13114;SDS011;6623;52.120;8.660;2023-03-14T06:10:48;4.53;;;0.90;;
13114;SDS011;6623;52.120;8.660;2023-03-14T06:13:13;3.73;;;1.00;;
13114;SDS011;6623;52.120;8.660;2023-03-14T06:15:40;6.53;;;1.13;;
13114;SDS011;6623;52.120;8.660;2023-03-14T06:18:06;3.13;;;1.20;;
13114;SDS011;6623;52.120;8.660;2023-03-14T06:20:32;1.77;;;1.00;;
13114;SDS011;6623;52.120;8.660;2023-03-14T06:22:58;2.87;;;1.00;;
13114;SDS011;6623;52.120;8.660;2023-03-14T06:25:23;4.23;;;1.00;;
13114;SDS011;6623;52.120;8.660;2023-03-14T06:27:49;4.47;;;1.10;;
13114;SDS011;6623;52.120;8.660;2023-03-14T06:30:15;1.70;;;0.97;;
13114;SDS011;6623;52.120;8.660;2023-03-14T06:32:41;2.13;;;0.97;;
13114;SDS011;6623;52.120;8.660;2023-03-14T06:35:06;2.70;;;1.00;;
13114;SDS011;6623;52.120;8.660;2023-03-14T06:37:33;2.63;;;1.00;;
13114;SDS011;6623;52.120;8.660;2023-03-14T06:39:59;1.30;;;0.77;;
13114;SDS011;6623;52.120;8.660;2023-03-14T06:42:25;1.77;;;1.00;;
13114;SDS011;6623;52.120;8.660;2023-03-14T06:44:50;1.33;;;0.70;;
13114;SDS011;6623;52.120;8.660;2023-03-14T06:47:16;3.17;;;0.70;;
13114;SDS011;6623;52.120;8.660;2023-03-14T06:49:41;1.00;;;0.70;;
13114;SDS011;6623;52.120;8.660;2023-03-14T06:52:07;2.03;;;0.53;;
13114;SDS011;6623;52.120;8.660;2023-03-14T06:54:33;1.47;;;0.53;;
13114;SDS011;6623;52.120;8.660;2023-03-14T06:56:58;3.37;;;0.90;;
13114;SDS011;6623;52.120;8.660;2023-03-14T06:59:24;2.57;;;0.70;;
13114;SDS011;6623;52.120;8.660;2023-03-14T07:01:49;1.53;;;0.67;;
13114;SDS011;6623;52.120;8.660;2023-03-14T07:04:15;2.30;;;0.70;;
13114;SDS011;6623;52.120;8.660;2023-03-14T07:06:42;3.83;;;0.80;;
13114;SDS011;6623;52.120;8.660;2023-03-14T07:09:09;3.80;;;0.97;;
13114;SDS011;6623;52.120;8.660;2023-03-14T07:11:36;7.33;;;1.20;;
13114;SDS011;6623;52.120;8.660;2023-03-14T07:14:02;4.10;;;1.17;;
13114;SDS011;6623;52.120;8.660;2023-03-14T07:16:27;2.20;;;0.83;;
13114;SDS011;6623;52.120;8.660;2023-03-14T07:18:56;2.07;;;0.70;;
13114;SDS011;6623;52.120;8.660;2023-03-14T07:21:22;9.33;;;1.37;;
13114;SDS011;6623;52.120;8.660;2023-03-14T07:23:47;5.47;;;0.80;;
13114;SDS011;6623;52.120;8.660;2023-03-14T07:26:13;4.40;;;0.80;;
13114;SDS011;6623;52.120;8.660;2023-03-14T07:28:39;3.60;;;1.00;;
13114;SDS011;6623;52.120;8.660;2023-03-14T07:31:04;2.77;;;0.60;;
13114;SDS011;6623;52.120;8.660;2023-03-14T07:33:30;3.87;;;0.90;;
13114;SDS011;6623;52.120;8.660;2023-03-14T07:35:56;4.33;;;1.43;;
13114;SDS011;6623;52.120;8.660;2023-03-14T07:38:21;3.33;;;1.17;;
13114;SDS011;6623;52.120;8.660;2023-03-14T07:40:47;3.83;;;0.83;;
13114;SDS011;6623;52.120;8.660;2023-03-14T07:43:12;6.30;;;1.30;;
13114;SDS011;6623;52.120;8.660;2023-03-14T07:45:38;10.30;;;1.50;;
13114;SDS011;6623;52.120;8.660;2023-03-14T07:48:03;3.77;;;0.93;;
13114;SDS011;6623;52.120;8.660;2023-03-14T07:50:29;6.20;;;1.60;;
13114;SDS011;6623;52.120;8.660;2023-03-14T07:52:55;4.27;;;1.30;;
13114;SDS011;6623;52.120;8.660;2023-03-14T07:55:20;3.53;;;1.10;;
13114;SDS011;6623;52.120;8.660;2023-03-14T07:57:46;2.70;;;1.40;;
13114;SDS011;6623;52.120;8.660;2023-03-14T08:00:12;6.00;;;1.33;;
13114;SDS011;6623;52.120;8.660;2023-03-14T08:02:39;2.17;;;1.10;;
13114;SDS011;6623;52.120;8.660;2023-03-14T08:05:05;3.40;;;1.30;;
13114;SDS011;6623;52.120;8.660;2023-03-14T08:07:31;2.63;;;1.27;;
13114;SDS011;6623;52.120;8.660;2023-03-14T08:09:57;2.93;;;1.50;;
13114;SDS011;6623;52.120;8.660;2023-03-14T08:12:22;2.93;;;1.50;;
13114;SDS011;6623;52.120;8.660;2023-03-14T08:14:48;3.63;;;1.73;;
13114;SDS011;6623;52.120;8.660;2023-03-14T08:17:13;2.60;;;1.70;;
13114;SDS011;6623;52.120;8.660;2023-03-14T08:19:40;2.53;;;1.50;;
13114;SDS011;6623;52.120;8.660;2023-03-14T08:22:06;2.17;;;1.30;;
13114;SDS011;6623;52.120;8.660;2023-03-14T08:24:32;1.93;;;1.43;;
13114;SDS011;6623;52.120;8.660;2023-03-14T08:26:57;2.27;;;1.90;;
13114;SDS011;6623;52.120;8.660;2023-03-14T08:29:23;2.80;;;1.43;;
13114;SDS011;6623;52.120;8.660;2023-03-14T08:31:49;2.37;;;1.43;;
13114;SDS011;6623;52.120;8.660;2023-03-14T08:34:14;1.83;;;1.50;;
13114;SDS011;6623;52.120;8.660;2023-03-14T08:36:40;3.53;;;1.53;;
13114;SDS011;6623;52.120;8.660;2023-03-14T08:39:06;2.00;;;1.80;;
13114;SDS011;6623;52.120;8.660;2023-03-14T08:41:32;2.87;;;1.60;;
13114;SDS011;6623;52.120;8.660;2023-03-14T08:43:58;2.60;;;1.60;;
13114;SDS011;6623;52.120;8.660;2023-03-14T08:46:24;3.57;;;1.67;;
13114;SDS011;6623;52.120;8.660;2023-03-14T08:48:49;1.80;;;1.40;;
13114;SDS011;6623;52.120;8.660;2023-03-14T08:51:15;3.07;;;1.57;;
13114;SDS011;6623;52.120;8.660;2023-03-14T08:53:41;2.57;;;1.40;;
13114;SDS011;6623;52.120;8.660;2023-03-14T08:56:07;3.27;;;1.50;;
13114;SDS011;6623;52.120;8.660;2023-03-14T08:58:34;3.57;;;1.40;;
13114;SDS011;6623;52.120;8.660;2023-03-14T09:01:02;2.97;;;1.30;;
13114;SDS011;6623;52.120;8.660;2023-03-14T09:03:29;2.13;;;1.30;;
13114;SDS011;6623;52.120;8.660;2023-03-14T09:05:55;1.57;;;1.40;;
13114;SDS011;6623;52.120;8.660;2023-03-14T09:08:20;3.87;;;1.53;;
13114;SDS011;6623;52.120;8.660;2023-03-14T09:10:46;3.07;;;1.57;;
13114;SDS011;6623;52.120;8.660;2023-03-14T09:13:11;2.50;;;2.07;;
13114;SDS011;6623;52.120;8.660;2023-03-14T09:15:37;3.10;;;1.73;;
13114;SDS011;6623;52.120;8.660;2023-03-14T09:18:02;3.23;;;1.67;;
13114;SDS011;6623;52.120;8.660;2023-03-14T09:20:28;1.90;;;1.70;;
13114;SDS011;6623;52.120;8.660;2023-03-14T09:22:54;2.17;;;1.60;;
13114;SDS011;6623;52.120;8.660;2023-03-14T09:25:19;1.90;;;1.70;;
13114;SDS011;6623;52.120;8.660;2023-03-14T09:27:45;1.87;;;1.67;;
13114;SDS011;6623;52.120;8.660;2023-03-14T09:30:10;2.17;;;1.80;;
13114;SDS011;6623;52.120;8.660;2023-03-14T09:32:36;1.77;;;1.60;;
13114;SDS011;6623;52.120;8.660;2023-03-14T09:35:03;3.33;;;1.93;;
13114;SDS011;6623;52.120;8.660;2023-03-14T09:37:28;2.23;;;1.80;;
13114;SDS011;6623;52.120;8.660;2023-03-14T09:39:54;2.10;;;1.60;;
13114;SDS011;6623;52.120;8.660;2023-03-14T09:42:25;2.37;;;1.77;;
13114;SDS011;6623;52.120;8.660;2023-03-14T09:45:03;2.80;;;1.63;;
13114;SDS011;6623;52.120;8.660;2023-03-14T09:47:32;1.97;;;1.60;;
13114;SDS011;6623;52.120;8.660;2023-03-14T09:49:59;2.20;;;2.00;;
13114;SDS011;6623;52.120;8.660;2023-03-14T09:52:30;2.20;;;2.00;;
13114;SDS011;6623;52.120;8.660;2023-03-14T09:55:04;2.37;;;2.17;;
13114;SDS011;6623;52.120;8.660;2023-03-14T09:57:35;2.10;;;1.90;;
13114;SDS011;6623;52.120;8.660;2023-03-14T10:00:06;2.00;;;1.90;;
13114;SDS011;6623;52.120;8.660;2023-03-14T10:02:39;2.07;;;1.90;;
13114;SDS011;6623;52.120;8.660;2023-03-14T10:05:14;2.33;;;1.90;;
13114;SDS011;6623;52.120;8.660;2023-03-14T10:07:42;3.50;;;2.33;;
13114;SDS011;6623;52.120;8.660;2023-03-14T10:10:09;1.90;;;1.80;;
13114;SDS011;6623;52.120;8.660;2023-03-14T10:12:36;1.77;;;1.67;;
13114;SDS011;6623;52.120;8.660;2023-03-14T10:15:08;2.00;;;1.80;;
13114;SDS011;6623;52.120;8.660;2023-03-14T10:17:42;2.07;;;1.63;;
13114;SDS011;6623;52.120;8.660;2023-03-14T10:20:26;1.60;;;1.43;;
13114;SDS011;6623;52.120;8.660;2023-03-14T10:22:58;3.03;;;1.60;;
13114;SDS011;6623;52.120;8.660;2023-03-14T10:25:29;1.70;;;1.60;;
13114;SDS011;6623;52.120;8.660;2023-03-14T10:27:57;1.63;;;1.53;;
13114;SDS011;6623;52.120;8.660;2023-03-14T10:30:27;1.50;;;1.40;;
13114;SDS011;6623;52.120;8.660;2023-03-14T10:33:36;1.83;;;1.73;;
13114;SDS011;6623;52.120;8.660;2023-03-14T10:36:03;2.50;;;2.10;;
13114;SDS011;6623;52.120;8.660;2023-03-14T10:38:40;1.27;;;1.13;;
13114;SDS011;6623;52.120;8.660;2023-03-14T10:44:01;2.40;;;1.13;;
13114;SDS011;6623;52.120;8.660;2023-03-14T10:46:29;0.83;;;0.50;;
13114;SDS011;6623;52.120;8.660;2023-03-14T10:48:57;0.83;;;0.60;;
13114;SDS011;6623;52.120;8.660;2023-03-14T10:51:27;0.70;;;0.50;;
13114;SDS011;6623;52.120;8.660;2023-03-14T10:53:56;0.53;;;0.40;;
13114;SDS011;6623;52.120;8.660;2023-03-14T10:56:38;0.30;;;0.30;;
13114;SDS011;6623;52.120;8.660;2023-03-14T10:59:10;0.40;;;0.40;;
13114;SDS011;6623;52.120;8.660;2023-03-14T11:01:44;0.73;;;0.60;;
13114;SDS011;6623;52.120;8.660;2023-03-14T11:04:41;1.63;;;1.03;;
13114;SDS011;6623;52.120;8.660;2023-03-14T11:07:36;1.30;;;0.47;;
13114;SDS011;6623;52.120;8.660;2023-03-14T11:10:24;1.50;;;0.50;;
13114;SDS011;6623;52.120;8.660;2023-03-14T11:15:58;1.87;;;0.57;;
13114;SDS011;6623;52.120;8.660;2023-03-14T11:22:04;0.40;;;0.40;;
13114;SDS011;6623;52.120;8.660;2023-03-14T11:25:06;3.20;;;0.40;;
13114;SDS011;6623;52.120;8.660;2023-03-14T11:27:44;0.50;;;0.50;;
13114;SDS011;6623;52.120;8.660;2023-03-14T11:32:56;0.47;;;0.47;;
13114;SDS011;6623;52.120;8.660;2023-03-14T11:35:55;1.60;;;0.50;;
13114;SDS011;6623;52.120;8.660;2023-03-14T11:38:30;1.27;;;0.60;;
13114;SDS011;6623;52.120;8.660;2023-03-14T11:41:03;0.90;;;0.67;;
13114;SDS011;6623;52.120;8.660;2023-03-14T11:43:35;1.77;;;0.90;;
13114;SDS011;6623;52.120;8.660;2023-03-14T11:46:09;1.10;;;0.70;;
13114;SDS011;6623;52.120;8.660;2023-03-14T11:51:35;2.57;;;0.70;;
13114;SDS011;6623;52.120;8.660;2023-03-14T11:54:21;0.70;;;0.67;;
13114;SDS011;6623;52.120;8.660;2023-03-14T11:57:16;3.70;;;1.13;;
13114;SDS011;6623;52.120;8.660;2023-03-14T11:59:56;1.40;;;1.10;;
13114;SDS011;6623;52.120;8.660;2023-03-14T12:03:02;1.37;;;1.07;;
13114;SDS011;6623;52.120;8.660;2023-03-14T12:08:55;2.37;;;1.27;;
13114;SDS011;6623;52.120;8.660;2023-03-14T12:11:36;2.83;;;1.13;;
13114;SDS011;6623;52.120;8.660;2023-03-14T12:14:26;2.37;;;1.30;;
13114;SDS011;6623;52.120;8.660;2023-03-14T12:19:45;2.33;;;1.30;;
13114;SDS011;6623;52.120;8.660;2023-03-14T12:22:26;4.77;;;1.60;;
13114;SDS011;6623;52.120;8.660;2023-03-14T12:24:54;3.30;;;1.40;;
13114;SDS011;6623;52.120;8.660;2023-03-14T12:30:40;5.80;;;1.43;;
13114;SDS011;6623;52.120;8.660;2023-03-14T12:38:09;5.80;;;1.40;;
13114;SDS011;6623;52.120;8.660;2023-03-14T12:40:54;4.13;;;1.17;;
13114;SDS011;6623;52.120;8.660;2023-03-14T12:43:40;7.20;;;1.77;;
13114;SDS011;6623;52.120;8.660;2023-03-14T12:46:07;6.63;;;1.50;;
13114;SDS011;6623;52.120;8.660;2023-03-14T12:48:39;5.43;;;1.17;;
13114;SDS011;6623;52.120;8.660;2023-03-14T12:51:12;6.10;;;1.30;;
13114;SDS011;6623;52.120;8.660;2023-03-14T12:59:31;3.90;;;1.20;;
13114;SDS011;6623;52.120;8.660;2023-03-14T13:02:14;3.27;;;1.13;;
13114;SDS011;6623;52.120;8.660;2023-03-14T13:04:59;5.50;;;1.33;;
13114;SDS011;6623;52.120;8.660;2023-03-14T13:07:29;4.57;;;1.30;;
13114;SDS011;6623;52.120;8.660;2023-03-14T13:10:56;7.33;;;1.40;;
13114;SDS011;6623;52.120;8.660;2023-03-14T13:15:47;6.47;;;1.60;;
13114;SDS011;6623;52.120;8.660;2023-03-14T13:20:48;3.37;;;1.10;;
13114;SDS011;6623;52.120;8.660;2023-03-14T13:23:21;8.43;;;1.60;;
13114;SDS011;6623;52.120;8.660;2023-03-14T13:25:49;8.20;;;1.80;;
13114;SDS011;6623;52.120;8.660;2023-03-14T13:28:16;9.23;;;2.10;;
13114;SDS011;6623;52.120;8.660;2023-03-14T13:30:43;10.70;;;1.73;;
13114;SDS011;6623;52.120;8.660;2023-03-14T13:33:11;12.13;;;1.93;;
13114;SDS011;6623;52.120;8.660;2023-03-14T13:35:49;6.83;;;1.93;;
13114;SDS011;6623;52.120;8.660;2023-03-14T13:38:22;14.03;;;2.57;;
13114;SDS011;6623;52.120;8.660;2023-03-14T13:40:50;10.33;;;2.67;;
13114;SDS011;6623;52.120;8.660;2023-03-14T13:43:24;8.87;;;1.97;;
13114;SDS011;6623;52.120;8.660;2023-03-14T13:46:03;11.80;;;2.30;;
13114;SDS011;6623;52.120;8.660;2023-03-14T13:48:49;11.93;;;2.17;;
13114;SDS011;6623;52.120;8.660;2023-03-14T13:51:23;14.37;;;2.37;;
13114;SDS011;6623;52.120;8.660;2023-03-14T13:53:55;11.70;;;2.50;;
13114;SDS011;6623;52.120;8.660;2023-03-14T13:56:21;12.60;;;2.40;;
13114;SDS011;6623;52.120;8.660;2023-03-14T13:58:49;14.60;;;2.50;;
13114;SDS011;6623;52.120;8.660;2023-03-14T14:01:15;11.30;;;2.20;;
13114;SDS011;6623;52.120;8.660;2023-03-14T14:03:44;11.43;;;2.13;;
13114;SDS011;6623;52.120;8.660;2023-03-14T14:06:34;9.60;;;2.30;;
13114;SDS011;6623;52.120;8.660;2023-03-14T14:09:02;13.20;;;2.70;;
13114;SDS011;6623;52.120;8.660;2023-03-14T14:11:56;15.43;;;2.63;;
13114;SDS011;6623;52.120;8.660;2023-03-14T14:16:58;14.17;;;3.10;;
13114;SDS011;6623;52.120;8.660;2023-03-14T14:19:29;9.10;;;2.53;;
13114;SDS011;6623;52.120;8.660;2023-03-14T14:21:57;9.50;;;1.70;;
13114;SDS011;6623;52.120;8.660;2023-03-14T14:24:23;10.03;;;1.67;;
13114;SDS011;6623;52.120;8.660;2023-03-14T14:26:53;11.10;;;2.47;;
13114;SDS011;6623;52.120;8.660;2023-03-14T14:29:28;8.10;;;2.30;;
13114;SDS011;6623;52.120;8.660;2023-03-14T14:32:14;9.63;;;2.00;;
13114;SDS011;6623;52.120;8.660;2023-03-14T14:34:41;8.10;;;1.23;;
13114;SDS011;6623;52.120;8.660;2023-03-14T14:37:18;10.90;;;2.10;;
13114;SDS011;6623;52.120;8.660;2023-03-14T14:39:45;9.40;;;1.60;;
13114;SDS011;6623;52.120;8.660;2023-03-14T14:42:13;6.00;;;1.50;;
13114;SDS011;6623;52.120;8.660;2023-03-14T14:44:41;5.90;;;1.83;;
13114;SDS011;6623;52.120;8.660;2023-03-14T14:47:12;8.87;;;1.53;;
13114;SDS011;6623;52.120;8.660;2023-03-14T14:49:39;8.40;;;2.20;;
13114;SDS011;6623;52.120;8.660;2023-03-14T14:52:09;9.60;;;1.73;;
13114;SDS011;6623;52.120;8.660;2023-03-14T14:54:42;10.60;;;1.80;;
13114;SDS011;6623;52.120;8.660;2023-03-14T14:57:16;7.30;;;1.77;;
13114;SDS011;6623;52.120;8.660;2023-03-14T14:59:44;5.97;;;1.50;;
13114;SDS011;6623;52.120;8.660;2023-03-14T15:02:19;6.97;;;1.40;;
13114;SDS011;6623;52.120;8.660;2023-03-14T15:05:00;7.30;;;1.57;;
13114;SDS011;6623;52.120;8.660;2023-03-14T15:07:26;7.87;;;1.60;;
13114;SDS011;6623;52.120;8.660;2023-03-14T15:09:51;7.00;;;1.50;;
13114;SDS011;6623;52.120;8.660;2023-03-14T15:12:17;9.10;;;1.73;;
13114;SDS011;6623;52.120;8.660;2023-03-14T15:14:42;8.00;;;1.97;;
13114;SDS011;6623;52.120;8.660;2023-03-14T15:17:10;6.60;;;1.67;;
13114;SDS011;6623;52.120;8.660;2023-03-14T15:19:36;6.43;;;1.77;;
13114;SDS011;6623;52.120;8.660;2023-03-14T15:22:04;6.03;;;1.83;;
13114;SDS011;6623;52.120;8.660;2023-03-14T15:24:34;8.23;;;1.70;;
13114;SDS011;6623;52.120;8.660;2023-03-14T15:26:59;9.83;;;2.10;;
13114;SDS011;6623;52.120;8.660;2023-03-14T15:29:25;11.13;;;2.30;;
13114;SDS011;6623;52.120;8.660;2023-03-14T15:31:56;5.93;;;2.00;;
13114;SDS011;6623;52.120;8.660;2023-03-14T15:34:21;6.97;;;1.80;;
13114;SDS011;6623;52.120;8.660;2023-03-14T15:36:47;6.47;;;1.40;;
13114;SDS011;6623;52.120;8.660;2023-03-14T15:39:16;7.17;;;1.40;;
13114;SDS011;6623;52.120;8.660;2023-03-14T15:41:42;8.87;;;2.63;;
13114;SDS011;6623;52.120;8.660;2023-03-14T15:44:09;6.87;;;2.20;;
13114;SDS011;6623;52.120;8.660;2023-03-14T15:46:34;8.73;;;1.80;;
13114;SDS011;6623;52.120;8.660;2023-03-14T15:49:00;8.13;;;2.00;;
13114;SDS011;6623;52.120;8.660;2023-03-14T15:51:26;5.53;;;2.20;;
13114;SDS011;6623;52.120;8.660;2023-03-14T15:53:51;3.43;;;1.60;;
13114;SDS011;6623;52.120;8.660;2023-03-14T15:56:17;7.37;;;1.73;;